createdAt,value
2024-04-14T00:00:16.293Z,8.65
2024-04-14T00:02:43.539Z,7.43
2024-04-14T00:05:10.702Z,11.18
2024-04-14T00:07:38.819Z,11.13
2024-04-14T00:10:06.621Z,8.98
2024-04-14T00:12:33.666Z,9.27
2024-04-14T00:15:00.715Z,8.38
2024-04-14T00:17:27.844Z,12.60
2024-04-14T00:19:55.512Z,8.98
2024-04-14T00:22:23.262Z,10.57
2024-04-14T00:24:50.457Z,9.98
2024-04-14T00:27:17.526Z,10.20
2024-04-14T00:29:44.596Z,8.18
2024-04-14T00:32:12.467Z,11.35
2024-04-14T00:34:39.648Z,10.60
2024-04-14T00:37:06.852Z,8.82
2024-04-14T00:39:33.969Z,11.70
2024-04-14T00:42:02.243Z,10.25
2024-04-14T00:44:29.424Z,8.05
2024-04-14T00:46:56.996Z,10.10
2024-04-14T00:49:25.550Z,8.80
2024-04-14T00:51:54.240Z,9.50
2024-04-14T00:54:22.834Z,12.13
2024-04-14T00:56:50.315Z,12.35
2024-04-14T00:59:17.964Z,8.43
2024-04-14T01:01:45.199Z,10.77
2024-04-14T01:04:12.435Z,7.13
2024-04-14T01:06:40.068Z,10.93
2024-04-14T01:09:10.081Z,9.23
2024-04-14T01:11:37.262Z,9.68
2024-04-14T01:14:06.736Z,10.68
2024-04-14T01:16:38.222Z,6.72
2024-04-14T01:19:06.278Z,6.72
2024-04-14T01:21:38.677Z,7.35
2024-04-14T01:24:06.344Z,5.95
2024-04-14T01:26:33.638Z,9.80
2024-04-14T01:29:00.721Z,11.88
2024-04-14T01:31:27.749Z,7.40
2024-04-14T01:33:55.010Z,7.32
2024-04-14T01:36:22.086Z,9.90
2024-04-14T01:38:49.198Z,10.85
2024-04-14T01:41:16.598Z,11.40
2024-04-14T01:43:43.779Z,8.98
2024-04-14T01:46:10.832Z,6.75
2024-04-14T01:48:37.991Z,14.25
2024-04-14T01:51:05.179Z,10.55
2024-04-14T01:53:32.321Z,11.27
2024-04-14T01:56:00.711Z,11.95
2024-04-14T01:58:28.356Z,10.18
2024-04-14T02:00:55.535Z,9.05
2024-04-14T02:03:22.890Z,10.75
2024-04-14T02:06:00.205Z,7.65
2024-04-14T02:08:28.238Z,8.40
2024-04-14T02:10:55.410Z,8.00
2024-04-14T02:13:22.495Z,9.32
2024-04-14T02:15:49.614Z,10.70
2024-04-14T02:18:16.823Z,9.55
2024-04-14T02:20:45.271Z,13.38
2024-04-14T02:23:12.377Z,8.90
2024-04-14T02:25:40.285Z,10.57
2024-04-14T02:28:07.574Z,11.88
2024-04-14T02:30:35.074Z,11.75
2024-04-14T02:33:02.491Z,13.05
2024-04-14T02:35:29.706Z,12.38
2024-04-14T02:37:56.847Z,10.10
2024-04-14T02:40:24.412Z,8.07
2024-04-14T02:42:51.593Z,10.73
2024-04-14T02:45:18.734Z,11.60
2024-04-14T02:47:46.037Z,8.55
2024-04-14T02:50:13.298Z,8.57
2024-04-14T02:52:40.324Z,9.98
2024-04-14T02:55:07.764Z,10.73
2024-04-14T02:57:35.082Z,10.63
2024-04-14T03:00:02.335Z,10.48
2024-04-14T03:02:29.343Z,11.57
2024-04-14T03:04:56.978Z,9.07
2024-04-14T03:07:24.077Z,16.77
2024-04-14T03:09:54.367Z,10.55
2024-04-14T03:12:21.676Z,11.25
2024-04-14T03:14:48.773Z,13.55
2024-04-14T03:17:15.803Z,17.95
2024-04-14T03:19:43.021Z,10.82
2024-04-14T03:22:10.043Z,14.32
2024-04-14T03:24:37.132Z,11.43
2024-04-14T03:27:04.519Z,14.43
2024-04-14T03:29:34.409Z,8.57
2024-04-14T03:32:01.625Z,12.52
2024-04-14T03:34:28.773Z,8.38
2024-04-14T03:36:56.884Z,10.50
2024-04-14T03:39:24.028Z,11.88
2024-04-14T03:41:51.437Z,6.47
2024-04-14T03:44:18.470Z,10.20
2024-04-14T03:46:45.534Z,6.82
2024-04-14T03:49:13.312Z,14.07
2024-04-14T03:51:43.662Z,10.48
2024-04-14T03:54:13.766Z,11.93
2024-04-14T03:56:41.361Z,8.52
2024-04-14T03:59:08.530Z,12.32
2024-04-14T04:01:36.949Z,9.88
2024-04-14T04:04:04.354Z,14.15
2024-04-14T04:06:31.589Z,15.65
2024-04-14T04:08:58.643Z,20.98
2024-04-14T04:11:25.800Z,12.07
2024-04-14T04:13:54.374Z,14.88
2024-04-14T04:16:21.746Z,11.27
2024-04-14T04:18:51.967Z,9.65
2024-04-14T04:21:19.348Z,12.90
2024-04-14T04:23:49.120Z,11.43
2024-04-14T04:26:16.220Z,11.43
2024-04-14T04:28:43.251Z,14.30
2024-04-14T04:31:14.153Z,11.85
2024-04-14T04:33:41.871Z,9.32
2024-04-14T04:36:09.471Z,12.77
2024-04-14T04:38:36.532Z,13.70
2024-04-14T04:41:04.714Z,13.50
2024-04-14T04:43:31.833Z,10.38
2024-04-14T04:45:59.102Z,7.57
2024-04-14T04:48:26.495Z,9.30
2024-04-14T04:50:53.720Z,12.45
2024-04-14T04:53:20.827Z,7.82
2024-04-14T04:55:48.731Z,8.88
2024-04-14T04:58:16.192Z,11.95
2024-04-14T05:00:55.441Z,10.82
2024-04-14T05:03:22.803Z,11.98
2024-04-14T05:06:01.690Z,10.82
2024-04-14T05:08:29.044Z,17.33
2024-04-14T05:10:57.495Z,10.05
2024-04-14T05:13:25.963Z,8.88
2024-04-14T05:15:53.824Z,8.35
2024-04-14T05:18:23.352Z,10.13
2024-04-14T05:20:50.620Z,7.60
2024-04-14T05:23:17.662Z,10.00
2024-04-14T05:25:50.166Z,8.05
2024-04-14T05:28:17.412Z,12.15
2024-04-14T05:30:44.555Z,11.63
2024-04-14T05:33:12.364Z,12.30
2024-04-14T05:35:39.671Z,10.77
2024-04-14T05:38:06.710Z,8.93
2024-04-14T05:40:33.832Z,11.93
2024-04-14T05:43:00.917Z,10.88
2024-04-14T05:45:30.072Z,8.95
2024-04-14T05:47:57.344Z,8.63
2024-04-14T05:50:24.547Z,8.80
2024-04-14T05:52:52.735Z,9.90
2024-04-14T05:55:20.389Z,5.88
2024-04-14T05:57:47.491Z,16.13
2024-04-14T06:00:14.568Z,12.88
2024-04-14T06:02:43.524Z,10.52
2024-04-14T06:05:10.844Z,13.88
2024-04-14T06:07:38.005Z,6.90
2024-04-14T06:10:05.630Z,7.68
2024-04-14T06:12:32.929Z,8.98
2024-04-14T06:15:00.656Z,7.30
2024-04-14T06:17:29.434Z,8.85
2024-04-14T06:19:57.658Z,7.35
2024-04-14T06:22:24.828Z,12.55
2024-04-14T06:24:52.028Z,13.38
2024-04-14T06:27:19.170Z,7.05
2024-04-14T06:29:46.307Z,8.05
2024-04-14T06:32:13.375Z,9.75
2024-04-14T06:34:40.615Z,9.52
2024-04-14T06:37:07.711Z,5.40
2024-04-14T06:39:35.025Z,11.60
2024-04-14T06:42:03.795Z,6.90
2024-04-14T06:44:30.869Z,9.68
2024-04-14T06:46:58.541Z,7.95
2024-04-14T06:49:25.605Z,7.00
2024-04-14T06:51:52.709Z,9.48
2024-04-14T06:54:19.772Z,7.78
2024-04-14T06:56:46.784Z,13.10
2024-04-14T06:59:13.937Z,7.15
2024-04-14T07:01:41.612Z,12.43
2024-04-14T07:04:08.875Z,6.72
2024-04-14T07:06:36.127Z,7.63
2024-04-14T07:09:03.176Z,3.50
2024-04-14T07:11:31.136Z,4.90
2024-04-14T07:13:58.197Z,11.95
2024-04-14T07:16:25.236Z,5.68
2024-04-14T07:18:52.350Z,13.13
2024-04-14T07:21:19.523Z,9.30
2024-04-14T07:23:46.580Z,5.95
2024-04-14T07:26:13.626Z,7.55
2024-04-14T07:28:41.133Z,8.35
2024-04-14T07:31:08.352Z,8.98
2024-04-14T07:33:36.939Z,12.55
2024-04-14T07:36:04.407Z,5.97
2024-04-14T07:38:31.738Z,5.88
2024-04-14T07:40:58.864Z,6.57
2024-04-14T07:43:26.202Z,4.00
2024-04-14T07:45:53.269Z,9.63
2024-04-14T07:48:20.675Z,9.02
2024-04-14T07:50:47.748Z,7.90
2024-04-14T07:53:16.341Z,6.00
2024-04-14T07:55:43.425Z,8.70
2024-04-14T07:58:10.637Z,9.85
2024-04-14T08:00:37.827Z,7.20
2024-04-14T08:03:05.189Z,8.82
2024-04-14T08:05:32.559Z,4.60
2024-04-14T08:07:59.742Z,7.35
2024-04-14T08:10:26.899Z,9.77
2024-04-14T08:12:53.928Z,6.85
2024-04-14T08:15:21.099Z,4.90
2024-04-14T08:17:48.185Z,6.57
2024-04-14T08:20:15.335Z,6.15
2024-04-14T08:22:42.893Z,3.95
2024-04-14T08:25:10.137Z,4.35
2024-04-14T08:27:37.260Z,7.60
2024-04-14T08:30:04.542Z,5.15
2024-04-14T08:32:31.938Z,9.80
2024-04-14T08:34:59.815Z,14.32
2024-04-14T08:37:27.588Z,4.75
2024-04-14T08:39:54.625Z,7.47
2024-04-14T08:42:21.839Z,6.25
2024-04-14T08:44:50.592Z,6.43
2024-04-14T08:47:22.274Z,7.55
2024-04-14T08:49:50.603Z,2.90
2024-04-14T08:52:19.392Z,4.25
2024-04-14T08:54:46.492Z,3.50
2024-04-14T08:57:15.187Z,5.00
2024-04-14T08:59:43.166Z,12.02
2024-04-14T09:02:12.369Z,5.07
2024-04-14T09:04:41.452Z,7.07
2024-04-14T09:07:08.769Z,3.67
2024-04-14T09:09:36.676Z,5.47
2024-04-14T09:12:03.931Z,3.40
2024-04-14T09:14:31.182Z,7.88
2024-04-14T09:16:58.372Z,8.27
2024-04-14T09:19:25.643Z,7.63
2024-04-14T09:21:53.924Z,6.40
2024-04-14T09:24:20.971Z,6.65
2024-04-14T09:26:48.059Z,5.10
2024-04-14T09:29:15.114Z,5.75
2024-04-14T09:31:42.410Z,3.42
2024-04-14T09:34:10.839Z,8.98
2024-04-14T09:36:39.055Z,4.20
2024-04-14T09:39:07.801Z,8.77
2024-04-14T09:41:37.453Z,2.80
2024-04-14T09:44:05.712Z,7.18
2024-04-14T09:46:33.883Z,7.20
2024-04-14T09:49:06.174Z,5.93
2024-04-14T09:51:37.112Z,2.95
2024-04-14T09:54:04.783Z,2.13
2024-04-14T09:56:32.111Z,2.80
2024-04-14T09:58:59.242Z,7.53
2024-04-14T10:01:33.450Z,2.80
2024-04-14T10:04:03.202Z,2.35
2024-04-14T10:06:31.704Z,4.45
2024-04-14T10:08:59.026Z,2.80
2024-04-14T10:11:26.317Z,2.78
2024-04-14T10:13:56.129Z,3.97
2024-04-14T10:16:24.639Z,1.98
2024-04-14T10:18:52.370Z,9.57
2024-04-14T10:21:23.542Z,4.28
2024-04-14T10:23:54.543Z,2.38
2024-04-14T10:26:21.951Z,4.55
2024-04-14T10:28:55.009Z,2.63
2024-04-14T10:31:37.123Z,3.47
2024-04-14T10:34:11.832Z,2.42
2024-04-14T10:36:44.402Z,2.33
2024-04-14T10:39:16.045Z,4.35
2024-04-14T10:41:43.236Z,4.00
2024-04-14T10:44:20.156Z,3.88
2024-04-14T10:46:50.474Z,3.90
2024-04-14T10:49:19.013Z,2.42
2024-04-14T10:51:46.211Z,5.13
2024-04-14T10:54:13.371Z,3.70
2024-04-14T10:56:40.434Z,4.25
2024-04-14T10:59:07.591Z,4.85
2024-04-14T11:01:35.105Z,7.07
2024-04-14T11:04:05.920Z,6.80
2024-04-14T11:06:33.512Z,1.83
2024-04-14T11:09:00.787Z,6.53
2024-04-14T11:11:28.162Z,4.32
2024-04-14T11:13:55.733Z,1.60
2024-04-14T11:16:22.968Z,2.50
2024-04-14T11:18:50.193Z,4.15
2024-04-14T11:21:21.011Z,3.67
2024-04-14T11:23:49.674Z,4.18
2024-04-14T11:26:16.997Z,4.75
2024-04-14T11:28:44.479Z,4.28
2024-04-14T11:31:11.680Z,4.07
2024-04-14T11:33:42.527Z,6.72
2024-04-14T11:36:12.999Z,9.23
2024-04-14T11:38:40.193Z,2.90
2024-04-14T11:41:07.724Z,2.30
2024-04-14T11:43:34.845Z,6.65
2024-04-14T11:46:02.025Z,11.18
2024-04-14T11:48:29.190Z,2.88
2024-04-14T11:50:56.456Z,2.97
2024-04-14T11:53:23.516Z,4.78
2024-04-14T11:55:50.607Z,2.90
2024-04-14T11:58:21.133Z,1.70
2024-04-14T12:00:48.599Z,2.90
2024-04-14T12:03:16.001Z,3.13
2024-04-14T12:05:43.043Z,7.60
2024-04-14T12:08:10.250Z,2.75
2024-04-14T12:10:37.547Z,2.38
2024-04-14T12:13:06.463Z,3.40
2024-04-14T12:15:33.706Z,4.22
2024-04-14T12:18:01.002Z,4.45
2024-04-14T12:20:28.333Z,10.45
2024-04-14T12:22:58.660Z,2.72
2024-04-14T12:25:27.235Z,8.07
2024-04-14T12:27:54.650Z,4.85
2024-04-14T12:30:26.887Z,5.43
2024-04-14T12:33:00.325Z,15.50
2024-04-14T12:35:27.424Z,12.38
2024-04-14T12:37:54.733Z,4.03
2024-04-14T12:40:21.909Z,3.63
2024-04-14T12:42:49.144Z,7.43
2024-04-14T12:45:16.516Z,4.95
2024-04-14T12:47:43.532Z,6.47
2024-04-14T12:50:10.686Z,2.47
2024-04-14T12:52:37.803Z,13.73
2024-04-14T12:55:05.250Z,9.15
2024-04-14T12:57:32.585Z,4.53
2024-04-14T12:59:59.616Z,4.15
2024-04-14T13:02:26.687Z,2.72
2024-04-14T13:04:53.811Z,7.25
2024-04-14T13:07:20.841Z,6.82
2024-04-14T13:09:48.116Z,2.40
2024-04-14T13:12:15.215Z,4.75
2024-04-14T13:14:42.382Z,6.53
2024-04-14T13:17:09.432Z,3.13
2024-04-14T13:19:36.487Z,7.40
2024-04-14T13:22:03.988Z,3.30
2024-04-14T13:24:31.211Z,5.13
2024-04-14T13:26:58.374Z,11.27
2024-04-14T13:29:25.646Z,2.20
2024-04-14T13:31:52.660Z,9.07
2024-04-14T13:34:20.122Z,6.88
2024-04-14T13:36:47.188Z,2.80
2024-04-14T13:39:14.446Z,8.75
2024-04-14T13:41:41.667Z,6.07
2024-04-14T13:44:08.787Z,3.75
2024-04-14T13:46:38.591Z,2.30
2024-04-14T13:49:05.976Z,4.43
2024-04-14T13:51:33.026Z,8.93
2024-04-14T13:54:00.147Z,4.65
2024-04-14T13:56:27.154Z,6.90
2024-04-14T13:58:54.388Z,10.50
2024-04-14T14:01:21.653Z,9.00
2024-04-14T14:03:48.816Z,7.20
2024-04-14T14:06:16.250Z,5.30
2024-04-14T14:08:43.306Z,7.03
2024-04-14T14:11:10.339Z,7.40
2024-04-14T14:13:37.526Z,5.57
2024-04-14T14:16:06.280Z,7.72
2024-04-14T14:18:33.542Z,3.67
2024-04-14T14:21:00.571Z,4.22
2024-04-14T14:23:27.576Z,9.50
2024-04-14T14:25:54.828Z,10.02
2024-04-14T14:28:21.928Z,4.07
2024-04-14T14:30:49.086Z,3.60
2024-04-14T14:33:37.217Z,5.18
2024-04-14T14:36:22.845Z,3.40
2024-04-14T14:38:49.941Z,2.35
2024-04-14T14:41:17.270Z,3.58
2024-04-14T14:43:44.616Z,11.23
2024-04-14T14:46:12.001Z,7.15
2024-04-14T14:48:40.781Z,5.28
2024-04-14T14:51:08.127Z,4.95
2024-04-14T14:53:35.240Z,3.67
2024-04-14T14:56:02.366Z,9.10
2024-04-14T14:58:29.448Z,3.40
2024-04-14T15:01:01.042Z,3.33
2024-04-14T15:03:28.163Z,10.25
2024-04-14T15:05:55.242Z,1.80
2024-04-14T15:08:22.404Z,6.22
2024-04-14T15:10:54.324Z,12.98
2024-04-14T15:13:22.911Z,6.55
2024-04-14T15:15:53.775Z,5.25
2024-04-14T15:18:21.822Z,4.65
2024-04-14T15:20:49.316Z,6.80
2024-04-14T15:23:19.859Z,9.02
2024-04-14T15:25:46.935Z,7.05
2024-04-14T15:28:24.917Z,6.65
2024-04-14T15:30:56.844Z,2.65
2024-04-14T15:33:24.006Z,4.57
2024-04-14T15:35:51.185Z,6.38
2024-04-14T15:38:18.541Z,4.95
2024-04-14T15:40:49.162Z,2.33
2024-04-14T15:43:19.025Z,2.88
2024-04-14T15:45:46.503Z,7.18
2024-04-14T15:48:13.767Z,3.45
2024-04-14T15:50:40.834Z,6.38
2024-04-14T15:53:08.445Z,9.13
2024-04-14T15:55:41.560Z,8.35
2024-04-14T15:58:08.790Z,11.68
2024-04-14T16:00:36.011Z,7.65
2024-04-14T16:03:03.346Z,6.15
2024-04-14T16:05:31.772Z,16.10
2024-04-14T16:07:58.982Z,21.67
2024-04-14T16:10:26.452Z,6.95
2024-04-14T16:12:53.503Z,7.47
2024-04-14T16:15:20.594Z,12.38
2024-04-14T16:17:47.696Z,13.20
2024-04-14T16:20:14.973Z,7.13
2024-04-14T16:22:42.233Z,3.85
2024-04-14T16:25:09.432Z,7.88
2024-04-14T16:27:37.154Z,48.22
2024-04-14T16:30:04.953Z,92.28
2024-04-14T16:32:32.196Z,31.45
2024-04-14T16:34:59.673Z,29.08
2024-04-14T16:37:26.763Z,21.13
2024-04-14T16:39:53.916Z,24.88
2024-04-14T16:42:20.958Z,30.90
2024-04-14T16:44:48.156Z,23.63
2024-04-14T16:47:15.184Z,9.85
2024-04-14T16:49:44.001Z,5.15
2024-04-14T16:52:11.834Z,16.50
2024-04-14T16:54:39.526Z,8.85
2024-04-14T16:57:07.983Z,8.73
2024-04-14T16:59:37.418Z,4.18
2024-04-14T17:02:05.070Z,17.73
2024-04-14T17:04:32.294Z,8.32
2024-04-14T17:07:01.409Z,10.52
2024-04-14T17:09:28.456Z,12.95
2024-04-14T17:11:55.465Z,8.35
2024-04-14T17:14:22.818Z,3.25
2024-04-14T17:16:49.919Z,3.45
2024-04-14T17:19:17.450Z,3.65
2024-04-14T17:21:44.609Z,4.97
2024-04-14T17:24:11.878Z,8.25
2024-04-14T17:26:38.912Z,7.47
2024-04-14T17:29:08.807Z,7.25
2024-04-14T17:31:37.650Z,10.40
2024-04-14T17:34:05.295Z,9.73
2024-04-14T17:36:32.330Z,14.32
2024-04-14T17:38:59.550Z,15.77
2024-04-14T17:41:26.613Z,18.08
2024-04-14T17:43:53.739Z,17.42
2024-04-14T17:46:20.787Z,23.35
2024-04-14T17:48:47.900Z,21.38
2024-04-14T17:51:15.099Z,14.77
2024-04-14T17:53:44.601Z,12.32
2024-04-14T17:56:11.656Z,16.13
2024-04-14T17:58:39.451Z,14.00
2024-04-14T18:01:06.638Z,13.38
2024-04-14T18:03:33.935Z,7.05
2024-04-14T18:06:01.064Z,9.93
2024-04-14T18:08:28.196Z,8.55
2024-04-14T18:10:55.229Z,9.77
2024-04-14T18:13:22.267Z,13.57
2024-04-14T18:15:49.691Z,9.85
2024-04-14T18:18:17.166Z,13.30
2024-04-14T18:20:47.493Z,12.45
2024-04-14T18:23:15.332Z,13.48
2024-04-14T18:25:42.376Z,13.55
2024-04-14T18:28:09.539Z,17.60
2024-04-14T18:30:36.951Z,14.50
2024-04-14T18:33:05.582Z,18.23
2024-04-14T18:35:32.758Z,14.77
2024-04-14T18:37:59.772Z,12.70
2024-04-14T18:40:26.986Z,14.52
2024-04-14T18:42:54.130Z,12.57
2024-04-14T18:45:21.234Z,12.73
2024-04-14T18:47:48.350Z,10.32
2024-04-14T18:50:15.675Z,11.63
2024-04-14T18:52:42.941Z,16.42
2024-04-14T18:55:10.065Z,15.73
2024-04-14T18:57:37.222Z,17.55
2024-04-14T19:00:04.704Z,12.88
2024-04-14T19:02:31.760Z,18.83
2024-04-14T19:04:58.802Z,12.60
2024-04-14T19:07:26.744Z,14.93
2024-04-14T19:09:53.840Z,15.65
2024-04-14T19:12:20.965Z,8.60
2024-04-14T19:14:47.983Z,11.48
2024-04-14T19:17:17.301Z,10.57
2024-04-14T19:19:44.506Z,9.63
2024-04-14T19:22:11.547Z,9.05
2024-04-14T19:24:38.844Z,10.93
2024-04-14T19:27:06.028Z,19.50
2024-04-14T19:29:33.141Z,14.32
2024-04-14T19:32:00.285Z,17.17
2024-04-14T19:34:27.340Z,20.70
2024-04-14T19:36:55.567Z,16.55
2024-04-14T19:39:22.682Z,25.88
2024-04-14T19:41:49.755Z,28.55
2024-04-14T19:44:16.787Z,17.70
2024-04-14T19:46:44.006Z,22.98
2024-04-14T19:49:11.256Z,19.90
2024-04-14T19:51:39.335Z,12.02
2024-04-14T19:54:06.367Z,15.77
2024-04-14T19:56:33.471Z,26.45
2024-04-14T19:59:00.496Z,32.95
2024-04-14T20:01:27.752Z,30.67
2024-04-14T20:03:55.005Z,23.55
2024-04-14T20:06:22.239Z,22.67
2024-04-14T20:08:49.304Z,17.92
2024-04-14T20:11:16.365Z,17.55
2024-04-14T20:13:43.421Z,11.77
2024-04-14T20:16:10.641Z,19.63
2024-04-14T20:18:37.933Z,7.55
2024-04-14T20:21:06.572Z,10.43
2024-04-14T20:23:34.596Z,9.35
2024-04-14T20:26:02.100Z,9.80
2024-04-14T20:28:29.139Z,15.02
2024-04-14T20:30:56.183Z,14.00
2024-04-14T20:33:23.468Z,27.15
2024-04-14T20:35:58.238Z,25.08
2024-04-14T20:38:26.136Z,29.20
2024-04-14T20:40:56.786Z,22.88
2024-04-14T20:43:23.811Z,18.30
2024-04-14T20:45:51.176Z,14.40
2024-04-14T20:48:18.454Z,16.73
2024-04-14T20:50:45.831Z,24.30
2024-04-14T20:53:12.891Z,18.17
2024-04-14T20:55:40.817Z,15.95
2024-04-14T20:58:07.986Z,13.05
2024-04-14T21:00:41.548Z,15.85
2024-04-14T21:03:08.900Z,8.73
2024-04-14T21:05:36.046Z,12.75
2024-04-14T21:08:03.404Z,11.70
2024-04-14T21:10:31.934Z,15.65
2024-04-14T21:12:59.074Z,10.73
2024-04-14T21:15:31.815Z,10.52
2024-04-14T21:17:59.036Z,15.95
2024-04-14T21:20:26.397Z,12.23
2024-04-14T21:22:53.449Z,12.48
2024-04-14T21:25:20.513Z,10.10
2024-04-14T21:27:47.714Z,10.95
2024-04-14T21:30:14.838Z,9.93
2024-04-14T21:32:41.926Z,14.27
2024-04-14T21:35:09.199Z,8.07
2024-04-14T21:37:36.350Z,10.90
2024-04-14T21:40:03.493Z,8.63
2024-04-14T21:42:30.601Z,11.32
2024-04-14T21:44:57.909Z,9.35
2024-04-14T21:47:25.076Z,13.93
2024-04-14T21:49:56.256Z,9.27
2024-04-14T21:52:23.292Z,18.23
2024-04-14T21:54:53.482Z,6.60
2024-04-14T21:57:20.637Z,12.50
2024-04-14T21:59:47.699Z,9.40
2024-04-14T22:02:14.779Z,8.15
2024-04-14T22:04:41.948Z,11.27
2024-04-14T22:07:09.111Z,5.32
2024-04-14T22:09:36.235Z,7.00
2024-04-14T22:12:03.422Z,6.40
2024-04-14T22:14:30.446Z,10.40
2024-04-14T22:16:57.536Z,8.25
2024-04-14T22:19:24.828Z,10.05
2024-04-14T22:21:51.959Z,6.40
2024-04-14T22:24:19.474Z,7.72
2024-04-14T22:26:46.510Z,7.65
2024-04-14T22:29:14.173Z,5.88
2024-04-14T22:31:41.529Z,7.47
2024-04-14T22:34:08.594Z,7.60
2024-04-14T22:36:36.048Z,8.80
2024-04-14T22:39:03.780Z,5.22
2024-04-14T22:41:30.833Z,6.93
2024-04-14T22:43:58.001Z,9.52
2024-04-14T22:46:25.176Z,6.97
2024-04-14T22:48:52.300Z,5.93
2024-04-14T22:51:19.366Z,5.80
2024-04-14T22:53:51.913Z,8.45
2024-04-14T22:56:19.486Z,5.40
2024-04-14T22:58:46.752Z,6.82
2024-04-14T23:01:13.923Z,7.15
2024-04-14T23:03:41.592Z,4.55
2024-04-14T23:06:12.265Z,5.95
2024-04-14T23:08:39.339Z,7.32
2024-04-14T23:11:06.442Z,5.90
2024-04-14T23:13:33.507Z,4.80
2024-04-14T23:16:01.432Z,7.28
2024-04-14T23:18:28.600Z,9.05
2024-04-14T23:20:56.260Z,5.47
2024-04-14T23:23:23.307Z,5.00
2024-04-14T23:25:51.139Z,7.85
2024-04-14T23:28:18.296Z,3.97
2024-04-14T23:30:45.396Z,5.20
2024-04-14T23:33:12.512Z,5.63
2024-04-14T23:35:40.010Z,7.82
2024-04-14T23:38:07.113Z,6.35
2024-04-14T23:40:34.253Z,5.30
2024-04-14T23:43:01.640Z,8.57
2024-04-14T23:45:29.101Z,6.80
2024-04-14T23:47:56.323Z,10.23
2024-04-14T23:50:23.438Z,5.53
2024-04-14T23:52:50.488Z,7.85
2024-04-14T23:55:17.611Z,6.68
2024-04-14T23:57:44.768Z,4.03
